Metar z pełnej godziny Komunikat METAR ze strony awiacja.imgw.pl Metar G00 EPLL METAR EPLL 172100Z 08001KT 8000 NSC 12/09 Q1021 =